TimeEEST,TemperatureF,Dew PointF,Humidity,Sea Level PressureIn,VisibilityMPH,Wind Direction,Wind SpeedMPH,Gust SpeedMPH,PrecipitationIn,Events,Conditions,WindDirDegrees,DateUTC
12:50 AM,68.0,64.4,88,29.89,6.2,ENE,4.6,-,N/A,,Partly Cloudy,60,2012-10-08 21:50:00
1:50 AM,66.2,64.4,94,29.89,6.2,Variable,3.5,-,N/A,,Partly Cloudy,0,2012-10-08 22:50:00
2:50 AM,66.2,62.6,88,29.86,6.2,Variable,3.5,-,N/A,,Partly Cloudy,0,2012-10-08 23:50:00
3:00 AM,65,63,89,29.88,6,,3.5,,,,Scattered Clouds,,2012-10-09 00:00:00
3:50 AM,66.2,62.6,88,29.86,6.2,Calm,Calm,-,N/A,,Partly Cloudy,0,2012-10-09 00:50:00
5:50 AM,66.2,62.6,88,29.86,6.2,NE,4.6,-,N/A,,Partly Cloudy,50,2012-10-09 02:50:00
6:20 AM,66.2,62.6,88,29.86,6.2,NE,4.6,-,N/A,,Partly Cloudy,50,2012-10-09 03:20:00
6:50 AM,64.4,60.8,88,29.86,6.2,East,4.6,-,N/A,,Partly Cloudy,80,2012-10-09 03:50:00
7:20 AM,66.2,62.6,88,29.86,6.2,ENE,5.8,-,N/A,,Partly Cloudy,60,2012-10-09 04:20:00
7:50 AM,66.2,60.8,83,29.86,6.2,ENE,4.6,-,N/A,,Scattered Clouds,70,2012-10-09 04:50:00
8:20 AM,64.4,60.8,88,29.86,6.2,East,6.9,-,N/A,,Scattered Clouds,80,2012-10-09 05:20:00
8:50 AM,68.0,62.6,83,29.86,6.2,East,6.9,-,N/A,,Scattered Clouds,90,2012-10-09 05:50:00
9:00 AM,69,62,73,29.88,6,East,6.9,,,,Scattered Clouds,90,2012-10-09 06:00:00
9:20 AM,71.6,64.4,78,29.86,6.2,ENE,6.9,-,N/A,,Scattered Clouds,70,2012-10-09 06:20:00
9:50 AM,71.6,62.6,73,29.89,6.2,East,5.8,-,N/A,,Scattered Clouds,80,2012-10-09 06:50:00
10:20 AM,73.4,60.8,65,29.89,6.2,ENE,6.9,-,N/A,,Scattered Clouds,70,2012-10-09 07:20:00
10:50 AM,73.4,59.0,61,29.89,6.2,ENE,5.8,-,N/A,,Mostly Cloudy,70,2012-10-09 07:50:00
11:20 AM,75.2,57.2,53,29.89,6.2,ENE,5.8,-,N/A,,Mostly Cloudy,60,2012-10-09 08:20:00
11:50 AM,75.2,59.0,57,29.89,6.2,East,4.6,-,N/A,,Mostly Cloudy,80,2012-10-09 08:50:00
12:20 PM,77.0,60.8,57,29.89,6.2,Calm,Calm,-,N/A,,Mostly Cloudy,0,2012-10-09 09:20:00
12:50 PM,78.8,62.6,57,29.89,6.2,WNW,4.6,-,N/A,,Mostly Cloudy,300,2012-10-09 09:50:00
1:20 PM,77.0,62.6,61,29.89,6.2,WNW,6.9,-,N/A,,Mostly Cloudy,290,2012-10-09 10:20:00
1:50 PM,77.0,62.6,61,29.86,6.2,WNW,5.8,-,N/A,,Scattered Clouds,300,2012-10-09 10:50:00
2:20 PM,75.2,62.6,65,29.86,6.2,WNW,4.6,-,N/A,,Scattered Clouds,290,2012-10-09 11:20:00
2:50 PM,77.0,62.6,61,29.86,6.2,WNW,5.8,-,N/A,,Scattered Clouds,300,2012-10-09 11:50:00
3:00 PM,77,63,52,29.87,6,WNW,5.8,,,,Partly Cloudy,300,2012-10-09 12:00:00
3:20 PM,77.0,62.6,61,29.86,6.2,WNW,6.9,-,N/A,,Scattered Clouds,290,2012-10-09 12:20:00
3:50 PM,75.2,57.2,53,29.86,6.2,West,6.9,-,N/A,,Scattered Clouds,270,2012-10-09 12:50:00
4:20 PM,77.0,55.4,47,29.86,6.2,WNW,8.1,-,N/A,,Scattered Clouds,290,2012-10-09 13:20:00
4:50 PM,75.2,55.4,50,29.83,6.2,WNW,8.1,-,N/A,,Scattered Clouds,300,2012-10-09 13:50:00
5:20 PM,75.2,55.4,50,29.83,6.2,WNW,8.1,-,N/A,,Scattered Clouds,290,2012-10-09 14:20:00
5:50 PM,73.4,53.6,50,29.83,6.2,West,5.8,-,N/A,,Scattered Clouds,280,2012-10-09 14:50:00
6:20 PM,73.4,53.6,50,29.83,6.2,West,5.8,-,N/A,,Scattered Clouds,270,2012-10-09 15:20:00
6:50 PM,71.6,53.6,53,29.83,6.2,Calm,Calm,-,N/A,,Scattered Clouds,0,2012-10-09 15:50:00
7:20 PM,69.8,53.6,56,29.83,6.2,Calm,Calm,-,N/A,,Mostly Cloudy,0,2012-10-09 16:20:00
7:50 PM,69.8,55.4,60,29.86,6.2,Calm,Calm,-,N/A,,Mostly Cloudy,0,2012-10-09 16:50:00
8:20 PM,69.8,55.4,60,29.86,6.2,West,4.6,-,N/A,,Mostly Cloudy,280,2012-10-09 17:20:00
8:50 PM,69.8,55.4,60,29.86,6.2,Calm,Calm,-,N/A,,Mostly Cloudy,0,2012-10-09 17:50:00
9:00 PM,69,56,54,29.86,6,Calm,Calm,,,,Scattered Clouds,,2012-10-09 18:00:00
9:50 PM,69.8,55.4,60,29.86,6.2,Calm,Calm,-,N/A,,Mostly Cloudy,0,2012-10-09 18:50:00
10:50 PM,69.8,57.2,64,29.86,6.2,WSW,4.6,-,N/A,,Mostly Cloudy,240,2012-10-09 19:50:00
11:50 PM,66.2,59.0,78,29.86,6.2,Calm,Calm,-,N/A,,Mostly Cloudy,0,2012-10-09 20:50:00